createdAt,value
2022-12-18T00:00:34.499Z,-5.54
2022-12-18T00:03:03.856Z,-5.58
2022-12-18T00:05:08.477Z,-5.66
2022-12-18T00:07:11.514Z,-5.69
2022-12-18T00:09:14.749Z,-5.74
2022-12-18T00:11:20.047Z,-5.74
2022-12-18T00:13:24.473Z,-5.72
2022-12-18T00:15:27.908Z,-5.72
2022-12-18T00:17:30.907Z,-5.70
2022-12-18T00:19:34.072Z,-5.69
2022-12-18T00:21:37.110Z,-5.68
2022-12-18T00:23:41.634Z,-5.66
2022-12-18T00:25:45.115Z,-5.72
2022-12-18T00:27:48.212Z,-5.84
2022-12-18T00:29:52.922Z,-5.91
2022-12-18T00:31:55.937Z,-5.90
2022-12-18T00:33:59.436Z,-5.93
2022-12-18T00:36:03.053Z,-5.94
2022-12-18T00:38:07.296Z,-5.92
2022-12-18T00:40:11.978Z,-5.84
2022-12-18T00:42:32.930Z,-5.84
2022-12-18T00:44:35.875Z,-5.88
2022-12-18T00:46:40.394Z,-5.84
2022-12-18T00:48:44.020Z,-5.87
2022-12-18T00:50:49.730Z,-5.94
2022-12-18T00:52:53.279Z,-5.92
2022-12-18T00:54:56.339Z,-5.90
2022-12-18T00:56:59.456Z,-5.89
2022-12-18T00:59:02.517Z,-5.88
2022-12-18T01:01:06.157Z,-5.80
2022-12-18T01:03:15.011Z,-5.80
2022-12-18T01:05:20.535Z,-5.77
2022-12-18T01:07:23.615Z,-5.77
2022-12-18T01:09:29.742Z,-5.80
2022-12-18T01:11:33.339Z,-5.83
2022-12-18T01:13:36.765Z,-5.91
2022-12-18T01:15:40.866Z,-6.00
2022-12-18T01:17:46.707Z,-6.14
2022-12-18T01:19:51.308Z,-6.18
2022-12-18T01:21:54.347Z,-6.29
2022-12-18T01:23:57.943Z,-6.26
2022-12-18T01:26:06.594Z,-6.23
2022-12-18T01:28:12.089Z,-6.18
2022-12-18T01:30:15.313Z,-6.13
2022-12-18T01:32:21.601Z,-6.09
2022-12-18T01:34:24.686Z,-6.03
2022-12-18T01:36:30.732Z,-5.96
2022-12-18T01:38:33.979Z,-5.95
2022-12-18T01:40:37.176Z,-5.94
2022-12-18T01:42:40.304Z,-5.91
2022-12-18T01:45:07.846Z,-5.91
2022-12-18T01:47:10.964Z,-5.89
2022-12-18T01:49:14.014Z,-5.87
2022-12-18T01:51:17.383Z,-5.89
2022-12-18T01:53:24.707Z,-5.87
2022-12-18T01:55:30.601Z,-5.84
2022-12-18T01:57:33.988Z,-5.84
2022-12-18T01:59:37.897Z,-5.80
2022-12-18T02:01:41.193Z,-5.85
2022-12-18T02:03:46.925Z,-5.83
2022-12-18T02:05:57.988Z,-5.83
2022-12-18T02:08:08.472Z,-5.79
2022-12-18T02:10:18.012Z,-5.77
2022-12-18T02:12:23.238Z,-5.79
2022-12-18T02:14:31.380Z,-5.75
2022-12-18T02:16:41.486Z,-5.71
2022-12-18T02:18:49.442Z,-5.71
2022-12-18T02:20:57.694Z,-5.80
2022-12-18T02:23:10.117Z,-5.91
2022-12-18T02:25:27.037Z,-6.04
2022-12-18T02:27:32.988Z,-6.14
2022-12-18T02:29:41.244Z,-6.29
2022-12-18T02:31:47.321Z,-6.41
2022-12-18T02:33:51.815Z,-6.49
2022-12-18T02:35:56.303Z,-6.48
2022-12-18T02:38:00.252Z,-6.49
2022-12-18T02:40:08.004Z,-6.43
2022-12-18T02:42:14.185Z,-6.36
2022-12-18T02:44:18.665Z,-6.33
2022-12-18T02:46:40.286Z,-6.36
2022-12-18T02:48:48.026Z,-6.45
2022-12-18T02:50:55.423Z,-6.45
2022-12-18T02:53:08.803Z,-6.46
2022-12-18T02:55:20.938Z,-6.50
2022-12-18T02:57:36.819Z,-6.53
2022-12-18T02:59:44.429Z,-6.54
2022-12-18T03:01:53.570Z,-6.46
2022-12-18T03:03:59.573Z,-6.44
2022-12-18T03:06:05.965Z,-6.47
2022-12-18T03:08:12.582Z,-6.42
2022-12-18T03:10:19.316Z,-6.38
2022-12-18T03:12:28.983Z,-6.33
2022-12-18T03:14:36.236Z,-6.31
2022-12-18T03:16:42.534Z,-6.28
2022-12-18T03:18:49.060Z,-6.26
2022-12-18T03:20:53.846Z,-6.27
2022-12-18T03:23:03.396Z,-6.23
2022-12-18T03:25:08.520Z,-6.18
2022-12-18T03:27:15.210Z,-6.10
2022-12-18T03:29:21.127Z,-6.11
2022-12-18T03:31:25.876Z,-6.08
2022-12-18T03:33:33.947Z,-6.00
2022-12-18T03:35:41.214Z,-5.93
2022-12-18T03:37:44.822Z,-5.80
2022-12-18T03:39:48.651Z,-5.72
2022-12-18T03:41:58.685Z,-5.67
2022-12-18T03:44:14.458Z,-5.57
2022-12-18T03:46:28.097Z,-5.55
2022-12-18T03:48:36.523Z,-5.46
2022-12-18T03:50:48.654Z,-5.39
2022-12-18T03:52:57.148Z,-5.34
2022-12-18T03:55:01.508Z,-5.25
2022-12-18T03:57:08.856Z,-5.22
2022-12-18T03:59:14.812Z,-5.15
2022-12-18T04:01:20.686Z,-5.14
2022-12-18T04:03:26.546Z,-5.08
2022-12-18T04:05:32.340Z,-5.09
2022-12-18T04:07:36.185Z,-5.05
2022-12-18T04:09:43.324Z,-5.03
2022-12-18T04:11:48.126Z,-5.02
2022-12-18T04:13:58.198Z,-5.04
2022-12-18T04:16:02.716Z,-5.07
2022-12-18T04:18:06.693Z,-5.06
2022-12-18T04:20:18.156Z,-5.04
2022-12-18T04:22:23.948Z,-5.09
2022-12-18T04:24:32.273Z,-5.14
2022-12-18T04:26:48.177Z,-5.18
2022-12-18T04:28:54.765Z,-5.19
2022-12-18T04:30:58.201Z,-5.16
2022-12-18T04:33:01.890Z,-5.18
2022-12-18T04:35:11.468Z,-5.14
2022-12-18T04:37:16.007Z,-5.18
2022-12-18T04:39:21.144Z,-5.20
2022-12-18T04:41:26.403Z,-5.31
2022-12-18T04:43:30.411Z,-5.32
2022-12-18T04:45:33.459Z,-5.31
2022-12-18T04:47:36.447Z,-5.27
2022-12-18T04:49:39.420Z,-5.33
2022-12-18T04:51:42.589Z,-5.42
2022-12-18T04:53:45.613Z,-5.38
2022-12-18T04:55:50.132Z,-5.38
2022-12-18T04:57:53.211Z,-5.36
2022-12-18T04:59:56.280Z,-5.34
2022-12-18T05:01:59.487Z,-5.31
2022-12-18T05:04:02.804Z,-5.26
2022-12-18T05:06:06.825Z,-5.26
2022-12-18T05:08:09.947Z,-5.34
2022-12-18T05:10:13.020Z,-5.47
2022-12-18T05:12:17.498Z,-5.50
2022-12-18T05:14:21.129Z,-5.48
2022-12-18T05:16:24.126Z,-5.50
2022-12-18T05:18:27.688Z,-5.54
2022-12-18T05:20:30.934Z,-5.65
2022-12-18T05:22:33.959Z,-5.72
2022-12-18T05:24:37.098Z,-5.77
2022-12-18T05:26:40.131Z,-5.80
2022-12-18T05:28:46.974Z,-5.85
2022-12-18T05:30:51.705Z,-5.92
2022-12-18T05:32:54.685Z,-5.89
2022-12-18T05:34:58.752Z,-5.89
2022-12-18T05:37:01.747Z,-5.89
2022-12-18T05:39:06.285Z,-5.84
2022-12-18T05:41:10.608Z,-5.92
2022-12-18T05:43:19.376Z,-5.93
2022-12-18T05:45:25.620Z,-5.88
2022-12-18T05:47:29.013Z,-5.86
2022-12-18T05:49:32.336Z,-5.86
2022-12-18T05:51:35.340Z,-5.80
2022-12-18T05:53:39.136Z,-5.73
2022-12-18T05:55:43.586Z,-5.68
2022-12-18T05:57:46.791Z,-5.63
2022-12-18T05:59:49.948Z,-5.58
2022-12-18T06:01:59.404Z,-5.52
2022-12-18T06:04:02.696Z,-5.46
2022-12-18T06:06:14.098Z,-5.39
2022-12-18T06:08:19.835Z,-5.40
2022-12-18T06:10:22.829Z,-5.40
2022-12-18T06:12:25.850Z,-5.37
2022-12-18T06:14:29.355Z,-5.36
2022-12-18T06:16:33.021Z,-5.37
2022-12-18T06:18:40.303Z,-5.33
2022-12-18T06:20:43.922Z,-5.32
2022-12-18T06:22:47.144Z,-5.34
2022-12-18T06:24:50.100Z,-5.39
2022-12-18T06:26:53.220Z,-5.41
2022-12-18T06:28:56.315Z,-5.42
2022-12-18T06:30:59.283Z,-5.46
2022-12-18T06:33:02.395Z,-5.48
2022-12-18T06:35:08.189Z,-5.51
2022-12-18T06:37:11.177Z,-5.52
2022-12-18T06:39:14.387Z,-5.48
2022-12-18T06:41:19.263Z,-5.50
2022-12-18T06:43:22.305Z,-5.52
2022-12-18T06:45:25.484Z,-5.56
2022-12-18T06:47:28.620Z,-5.60
2022-12-18T06:49:31.664Z,-5.57
2022-12-18T06:51:38.229Z,-5.58
2022-12-18T06:53:41.625Z,-5.60
2022-12-18T06:55:44.857Z,-5.69
2022-12-18T06:57:47.884Z,-5.76
2022-12-18T06:59:50.942Z,-5.86
2022-12-18T07:01:54.273Z,-5.86
2022-12-18T07:03:58.764Z,-5.90
2022-12-18T07:06:02.275Z,-5.89
2022-12-18T07:08:07.316Z,-5.95
2022-12-18T07:10:11.306Z,-5.97
2022-12-18T07:12:14.961Z,-6.00
2022-12-18T07:14:18.035Z,-6.01
2022-12-18T07:16:25.371Z,-6.00
2022-12-18T07:18:28.891Z,-6.02
2022-12-18T07:20:32.020Z,-5.94
2022-12-18T07:22:35.077Z,-5.97
2022-12-18T07:24:39.549Z,-5.94
2022-12-18T07:26:42.582Z,-5.85
2022-12-18T07:28:45.873Z,-5.86
2022-12-18T07:30:48.970Z,-5.85
2022-12-18T07:32:52.055Z,-5.78
2022-12-18T07:34:55.124Z,-5.77
2022-12-18T07:36:58.230Z,-5.77
2022-12-18T07:39:01.347Z,-5.74
2022-12-18T07:41:07.677Z,-5.78
2022-12-18T07:43:10.893Z,-5.70
2022-12-18T07:45:13.869Z,-5.69
2022-12-18T07:47:16.821Z,-5.61
2022-12-18T07:49:19.873Z,-5.55
2022-12-18T07:51:22.945Z,-5.52
2022-12-18T07:53:26.052Z,-5.42
2022-12-18T07:55:35.338Z,-5.22
2022-12-18T07:57:55.421Z,-5.08
2022-12-18T08:00:02.479Z,-4.91
2022-12-18T08:02:16.336Z,-4.71
2022-12-18T08:04:40.605Z,-4.50
2022-12-18T08:06:47.530Z,-4.33
2022-12-18T08:08:51.124Z,-4.23
2022-12-18T08:10:54.348Z,-4.14
2022-12-18T08:13:03.148Z,-4.04
2022-12-18T08:15:09.107Z,-3.93
2022-12-18T08:17:12.187Z,-3.94
2022-12-18T08:19:15.440Z,-3.90
2022-12-18T08:21:21.356Z,-3.81
2022-12-18T08:23:28.552Z,-3.75
2022-12-18T08:25:31.889Z,-3.73
2022-12-18T08:27:35.021Z,-3.61
2022-12-18T08:29:39.527Z,-3.49
2022-12-18T08:31:42.700Z,-3.33
2022-12-18T08:33:45.784Z,-3.15
2022-12-18T08:35:50.019Z,-2.95
2022-12-18T08:37:53.035Z,-2.84
2022-12-18T08:39:56.043Z,-2.76
2022-12-18T08:42:16.446Z,-2.62
2022-12-18T08:44:37.174Z,-2.45
2022-12-18T08:46:43.099Z,-2.34
2022-12-18T08:48:46.558Z,-2.23
2022-12-18T08:50:56.156Z,-2.08
2022-12-18T08:52:59.227Z,-1.97
2022-12-18T08:55:02.490Z,-1.95
2022-12-18T08:57:05.539Z,-1.92
2022-12-18T08:59:08.501Z,-1.85
2022-12-18T09:01:13.240Z,-1.76
2022-12-18T09:03:19.075Z,-1.66
2022-12-18T09:05:24.276Z,-1.59
2022-12-18T09:07:27.606Z,-1.54
2022-12-18T09:09:30.653Z,-1.43
2022-12-18T09:11:35.531Z,-1.54
2022-12-18T09:13:39.386Z,-1.45
2022-12-18T09:15:43.988Z,-1.41
2022-12-18T09:17:49.674Z,-1.38
2022-12-18T09:19:54.336Z,-1.40
2022-12-18T09:21:57.420Z,-1.34
2022-12-18T09:24:00.734Z,-1.25
2022-12-18T09:26:04.008Z,-1.13
2022-12-18T09:28:08.859Z,-1.04
2022-12-18T09:30:12.718Z,-0.99
2022-12-18T09:32:22.182Z,-0.94
2022-12-18T09:34:25.583Z,-0.90
2022-12-18T09:36:30.079Z,-0.85
2022-12-18T09:38:33.122Z,-0.75
2022-12-18T09:40:38.526Z,-0.71
2022-12-18T09:42:41.617Z,-0.64
2022-12-18T09:44:47.467Z,-0.55
2022-12-18T09:46:56.226Z,-0.45
2022-12-18T09:49:01.824Z,-0.38
2022-12-18T09:51:10.261Z,-0.35
2022-12-18T09:53:19.009Z,-0.30
2022-12-18T09:55:26.399Z,-0.24
2022-12-18T09:57:32.144Z,-0.27
2022-12-18T09:59:38.416Z,-0.21
2022-12-18T10:01:44.462Z,-0.02
2022-12-18T10:03:47.773Z,0.13
2022-12-18T10:05:59.478Z,0.25
2022-12-18T10:08:04.816Z,0.34
2022-12-18T10:10:16.931Z,0.36
2022-12-18T10:12:24.952Z,0.39
2022-12-18T10:14:32.671Z,0.33
2022-12-18T10:16:40.907Z,0.29
2022-12-18T10:19:04.366Z,0.23
2022-12-18T10:21:12.885Z,0.30
2022-12-18T10:23:20.148Z,0.34
2022-12-18T10:25:27.844Z,0.39
2022-12-18T10:27:31.139Z,0.42
2022-12-18T10:29:34.285Z,0.48
2022-12-18T10:31:37.387Z,0.48
2022-12-18T10:33:40.635Z,0.51
2022-12-18T10:35:44.294Z,0.51
2022-12-18T10:38:18.330Z,0.53
2022-12-18T10:40:25.736Z,0.58
2022-12-18T10:42:30.142Z,0.65
2022-12-18T10:44:33.235Z,0.67
2022-12-18T10:46:36.636Z,0.75
2022-12-18T10:48:43.935Z,0.81
2022-12-18T10:53:20.967Z,0.74
2022-12-18T10:55:24.081Z,0.77
2022-12-18T10:57:36.591Z,0.82
2022-12-18T10:59:54.016Z,0.87
2022-12-18T11:01:58.524Z,0.89
2022-12-18T11:04:19.189Z,0.90
2022-12-18T11:06:25.647Z,0.91
2022-12-18T11:08:28.678Z,0.90
2022-12-18T11:10:34.007Z,0.91
2022-12-18T11:12:38.434Z,0.96
2022-12-18T11:14:47.399Z,0.95
2022-12-18T11:17:24.218Z,0.99
2022-12-18T11:19:25.278Z,1.03
2022-12-18T11:21:28.293Z,1.06
2022-12-18T11:23:31.338Z,1.08
2022-12-18T11:25:36.180Z,1.10
2022-12-18T11:27:41.272Z,1.14
2022-12-18T11:29:46.750Z,1.23
2022-12-18T11:31:50.250Z,1.32
2022-12-18T11:36:28.196Z,1.45
2022-12-18T11:38:33.503Z,1.51
2022-12-18T11:40:41.342Z,1.54
2022-12-18T11:42:48.707Z,1.51
2022-12-18T11:44:54.847Z,1.50
2022-12-18T11:47:02.556Z,1.58
2022-12-18T11:49:09.364Z,1.60
2022-12-18T11:51:17.014Z,1.63
2022-12-18T11:53:26.877Z,1.57
2022-12-18T11:55:39.908Z,1.55
2022-12-18T11:57:52.007Z,1.53
2022-12-18T11:59:59.315Z,1.44
2022-12-18T12:02:13.672Z,1.28
2022-12-18T12:04:39.533Z,1.25
2022-12-18T12:06:48.855Z,1.36
2022-12-18T12:09:02.807Z,1.40
2022-12-18T12:11:10.187Z,1.42
2022-12-18T12:13:24.024Z,1.35
2022-12-18T12:15:36.800Z,1.35
2022-12-18T12:17:44.962Z,1.34
2022-12-18T12:19:52.766Z,1.38
2022-12-18T12:22:01.963Z,1.38
2022-12-18T12:24:13.412Z,1.32
2022-12-18T12:26:20.339Z,1.28
2022-12-18T12:28:36.298Z,1.14
2022-12-18T12:30:50.659Z,1.16
2022-12-18T12:33:09.539Z,1.17
2022-12-18T12:35:25.968Z,1.23
2022-12-18T12:37:36.371Z,1.25
2022-12-18T12:39:47.987Z,1.31
2022-12-18T12:42:08.829Z,1.32
2022-12-18T12:44:18.849Z,1.36
2022-12-18T12:46:23.922Z,1.39
2022-12-18T12:48:36.801Z,1.45
2022-12-18T12:50:40.564Z,1.55
2022-12-18T12:52:46.414Z,1.65
2022-12-18T12:54:50.343Z,1.73
2022-12-18T12:57:00.117Z,1.80
2022-12-18T12:59:08.030Z,1.84
2022-12-18T13:01:23.382Z,1.84
2022-12-18T13:03:44.251Z,1.81
2022-12-18T13:05:51.007Z,1.71
2022-12-18T13:07:58.508Z,1.68
2022-12-18T13:10:34.486Z,1.70
2022-12-18T13:12:55.735Z,1.68
2022-12-18T13:15:14.611Z,1.70
2022-12-18T13:17:30.265Z,1.66
2022-12-18T13:19:33.387Z,1.68
2022-12-18T13:21:59.799Z,1.73
2022-12-18T13:24:18.326Z,1.69
2022-12-18T13:26:35.677Z,1.69
2022-12-18T13:28:59.896Z,1.72
2022-12-18T13:31:03.653Z,1.70
2022-12-18T13:34:09.390Z,1.72
2022-12-18T13:36:15.542Z,1.71
2022-12-18T13:38:23.590Z,1.74
2022-12-18T13:40:59.974Z,1.71
2022-12-18T13:43:26.795Z,1.71
2022-12-18T13:45:50.502Z,1.67
2022-12-18T13:48:06.036Z,1.70
2022-12-18T13:50:22.721Z,1.76
2022-12-18T13:52:28.009Z,1.74
2022-12-18T13:54:35.481Z,1.73
2022-12-18T13:56:46.123Z,1.70
2022-12-18T13:59:08.059Z,1.65
2022-12-18T14:01:24.325Z,1.65
2022-12-18T14:03:29.489Z,1.62
2022-12-18T14:05:36.249Z,1.61
2022-12-18T14:07:58.475Z,1.58
2022-12-18T14:13:02.204Z,1.59
2022-12-18T14:15:08.993Z,1.54
2022-12-18T14:17:16.832Z,1.57
2022-12-18T14:19:21.123Z,1.59
2022-12-18T14:21:28.411Z,1.54
2022-12-18T14:23:34.081Z,1.51
2022-12-18T14:25:37.137Z,1.47
2022-12-18T14:30:02.757Z,1.43
2022-12-18T14:32:17.057Z,1.43
2022-12-18T14:34:21.263Z,1.41
2022-12-18T14:36:28.492Z,1.39
2022-12-18T14:38:32.517Z,1.33
2022-12-18T14:40:35.701Z,1.27
2022-12-18T14:42:39.047Z,1.21
2022-12-18T14:45:05.247Z,1.17
2022-12-18T14:47:05.445Z,1.14
2022-12-18T14:49:22.910Z,1.14
2022-12-18T14:51:30.760Z,1.09
2022-12-18T14:53:40.283Z,1.05
2022-12-18T14:55:48.331Z,1.00
2022-12-18T14:58:06.412Z,0.93
2022-12-18T15:00:18.215Z,0.88
2022-12-18T15:02:24.637Z,0.79
2022-12-18T15:04:30.414Z,0.73
2022-12-18T15:06:36.707Z,0.68
2022-12-18T15:08:39.925Z,0.65
2022-12-18T15:10:49.017Z,0.63
2022-12-18T15:13:34.599Z,0.61
2022-12-18T15:15:49.658Z,0.52
2022-12-18T15:17:59.299Z,0.43
2022-12-18T15:20:04.215Z,0.38
2022-12-18T15:22:26.873Z,0.38
2022-12-18T15:24:33.532Z,0.34
2022-12-18T15:26:39.260Z,0.29
2022-12-18T15:28:46.576Z,0.19
2022-12-18T15:31:24.061Z,0.14
2022-12-18T15:33:29.255Z,0.12
2022-12-18T15:35:32.354Z,0.04
2022-12-18T15:37:36.848Z,-0.01
2022-12-18T15:39:40.597Z,-0.11
2022-12-18T15:42:04.920Z,-0.14
2022-12-18T15:44:23.237Z,-0.21
2022-12-18T15:46:42.399Z,-0.30
2022-12-18T15:48:46.600Z,-0.35
2022-12-18T15:50:50.073Z,-0.41
2022-12-18T15:52:54.750Z,-0.47
2022-12-18T15:55:15.244Z,-0.57
2022-12-18T15:57:25.221Z,-0.53
2022-12-18T15:59:29.416Z,-0.57
2022-12-18T16:01:38.193Z,-0.57
2022-12-18T16:03:49.275Z,-0.64
2022-12-18T16:05:52.419Z,-0.69
2022-12-18T16:11:38.764Z,-0.68
2022-12-18T16:13:42.492Z,-0.67
2022-12-18T16:15:46.101Z,-0.68
2022-12-18T16:18:00.903Z,-0.67
2022-12-18T16:20:06.124Z,-0.66
2022-12-18T16:22:24.887Z,-0.68
2022-12-18T16:24:29.769Z,-0.67
2022-12-18T16:26:35.881Z,-0.66
2022-12-18T16:28:57.144Z,-0.70
2022-12-18T16:31:00.411Z,-0.70
2022-12-18T16:33:03.743Z,-0.73
2022-12-18T16:35:11.561Z,-0.73
2022-12-18T16:37:16.249Z,-0.76
2022-12-18T16:39:19.539Z,-0.78
2022-12-18T16:41:35.160Z,-0.83
2022-12-18T16:43:41.915Z,-0.93
2022-12-18T16:45:45.356Z,-0.94
2022-12-18T16:47:48.468Z,-0.96
2022-12-18T16:49:53.250Z,-1.04
2022-12-18T16:52:02.968Z,-1.06
2022-12-18T16:54:10.916Z,-1.09
2022-12-18T16:56:15.734Z,-1.06
2022-12-18T16:58:18.736Z,-1.07
2022-12-18T17:00:22.810Z,-1.07
2022-12-18T17:02:28.244Z,-1.12
2022-12-18T17:04:31.842Z,-1.12
2022-12-18T17:06:36.695Z,-1.14
2022-12-18T17:08:41.249Z,-1.14
2022-12-18T17:10:44.607Z,-1.08
2022-12-18T17:12:55.239Z,-1.12
2022-12-18T17:14:58.431Z,-1.11
2022-12-18T17:19:26.325Z,-1.08
2022-12-18T17:21:29.792Z,-1.11
2022-12-18T17:23:34.386Z,-1.12
2022-12-18T17:25:40.904Z,-1.14
2022-12-18T17:27:44.164Z,-1.13
2022-12-18T17:29:49.132Z,-1.05
2022-12-18T17:31:52.713Z,-1.07
2022-12-18T17:33:57.817Z,-1.07
2022-12-18T17:36:01.120Z,-1.10
2022-12-18T17:38:04.236Z,-1.11
2022-12-18T17:40:08.833Z,-1.12
2022-12-18T17:42:15.159Z,-1.15
2022-12-18T17:44:19.480Z,-1.12
2022-12-18T17:46:23.003Z,-1.11
2022-12-18T17:48:26.814Z,-1.11
2022-12-18T17:50:30.497Z,-1.09
2022-12-18T17:52:36.413Z,-1.08
2022-12-18T17:54:42.363Z,-1.08
2022-12-18T17:56:45.929Z,-1.09
2022-12-18T17:58:51.403Z,-1.08
2022-12-18T18:00:54.534Z,-1.05
2022-12-18T18:02:58.369Z,-1.06
2022-12-18T18:05:01.570Z,-1.07
2022-12-18T18:07:04.757Z,-1.10
2022-12-18T18:09:16.711Z,-1.09
2022-12-18T18:11:39.826Z,-1.10
2022-12-18T18:14:00.694Z,-1.09
2022-12-18T18:16:06.001Z,-1.11
2022-12-18T18:18:09.244Z,-1.09
2022-12-18T18:20:22.308Z,-1.06
2022-12-18T18:22:26.234Z,-1.00
2022-12-18T18:24:29.832Z,-0.99
2022-12-18T18:27:01.956Z,-0.97
2022-12-18T18:29:06.823Z,-0.94
2022-12-18T18:31:13.069Z,-0.91
2022-12-18T18:33:19.303Z,-0.87
2022-12-18T18:35:52.399Z,-0.87
2022-12-18T18:37:45.879Z,-0.86
2022-12-18T18:40:07.462Z,-0.83
2022-12-18T18:42:11.113Z,-0.79
2022-12-18T18:44:14.222Z,-0.77
2022-12-18T18:46:19.130Z,-0.79
2022-12-18T18:48:22.242Z,-0.73
2022-12-18T18:50:26.575Z,-0.68
2022-12-18T18:52:31.932Z,-0.66
2022-12-18T18:54:35.252Z,-0.63
2022-12-18T18:57:11.715Z,-0.63
2022-12-18T18:59:01.899Z,-0.60
2022-12-18T19:01:07.038Z,-0.57
2022-12-18T19:03:12.270Z,-0.54
2022-12-18T19:05:15.863Z,-0.48
2022-12-18T19:07:30.251Z,-0.46
2022-12-18T19:09:34.804Z,-0.43
2022-12-18T19:11:55.197Z,-0.43
2022-12-18T19:14:19.348Z,-0.46
2022-12-18T19:16:22.712Z,-0.48
2022-12-18T19:18:29.166Z,-0.55
2022-12-18T19:20:32.664Z,-0.50
2022-12-18T19:22:36.292Z,-0.50
2022-12-18T19:24:39.882Z,-0.49
2022-12-18T19:26:43.670Z,-0.49
2022-12-18T19:28:47.609Z,-0.49
2022-12-18T19:30:58.880Z,-0.49
2022-12-18T19:33:19.995Z,-0.46
2022-12-18T19:35:27.219Z,-0.51
2022-12-18T19:37:30.766Z,-0.48
2022-12-18T19:39:49.339Z,-0.47
2022-12-18T19:41:52.894Z,-0.47
2022-12-18T19:43:56.068Z,-0.47
2022-12-18T19:45:59.685Z,-0.45
2022-12-18T19:48:04.533Z,-0.44
2022-12-18T19:50:09.327Z,-0.44
2022-12-18T19:52:35.487Z,-0.43
2022-12-18T19:54:38.786Z,-0.44
2022-12-18T19:56:41.829Z,-0.43
2022-12-18T19:58:45.910Z,-0.45
2022-12-18T20:00:58.285Z,-0.45
2022-12-18T20:03:10.042Z,-0.46
2022-12-18T20:05:27.952Z,-0.48
2022-12-18T20:07:31.187Z,-0.51
2022-12-18T20:09:53.948Z,-0.47
2022-12-18T20:12:02.748Z,-0.46
2022-12-18T20:14:06.582Z,-0.46
2022-12-18T20:16:10.463Z,-0.43
2022-12-18T20:18:13.604Z,-0.36
2022-12-18T20:20:17.165Z,-0.35
2022-12-18T20:22:21.705Z,-0.35
2022-12-18T20:24:24.821Z,-0.34
2022-12-18T20:26:29.611Z,-0.34
2022-12-18T20:28:34.443Z,-0.37
2022-12-18T20:30:38.120Z,-0.39
2022-12-18T20:32:41.200Z,-0.42
2022-12-18T20:34:44.317Z,-0.48
2022-12-18T20:37:13.349Z,-0.45
2022-12-18T20:39:17.825Z,-0.49
2022-12-18T20:41:22.524Z,-0.51
2022-12-18T20:43:27.052Z,-0.56
2022-12-18T20:45:30.239Z,-0.61
2022-12-18T20:47:34.072Z,-0.66
2022-12-18T20:49:37.538Z,-0.66
2022-12-18T20:51:42.617Z,-0.63
2022-12-18T20:53:46.451Z,-0.62
2022-12-18T20:56:17.756Z,-0.71
2022-12-18T20:58:26.027Z,-0.77
2022-12-18T21:00:29.139Z,-0.82
2022-12-18T21:02:32.656Z,-0.82
2022-12-18T21:04:51.330Z,-0.88
2022-12-18T21:07:00.557Z,-0.89
2022-12-18T21:09:06.343Z,-0.84
2022-12-18T21:11:31.236Z,-0.85
2022-12-18T21:13:37.194Z,-0.84
2022-12-18T21:15:40.205Z,-0.83
2022-12-18T21:17:44.952Z,-0.83
2022-12-18T21:19:50.798Z,-0.88
2022-12-18T21:21:54.907Z,-0.88
2022-12-18T21:23:57.944Z,-0.85
2022-12-18T21:26:16.932Z,-0.82
2022-12-18T21:28:22.125Z,-0.82
2022-12-18T21:30:26.561Z,-0.82
2022-12-18T21:32:30.924Z,-0.83
2022-12-18T21:34:37.056Z,-0.82
2022-12-18T21:36:40.417Z,-0.80
2022-12-18T21:38:43.504Z,-0.78
2022-12-18T21:40:47.471Z,-0.74
2022-12-18T21:43:08.373Z,-0.73
2022-12-18T21:45:12.100Z,-0.72
2022-12-18T21:47:21.805Z,-0.69
2022-12-18T21:49:26.526Z,-0.67
2022-12-18T21:51:29.856Z,-0.67
2022-12-18T21:53:32.978Z,-0.65
2022-12-18T21:55:36.130Z,-0.65
2022-12-18T21:57:39.959Z,-0.58
2022-12-18T21:59:44.160Z,-0.55
2022-12-18T22:01:47.917Z,-0.59
2022-12-18T22:03:53.049Z,-0.60
2022-12-18T22:06:07.615Z,-0.56
2022-12-18T22:08:13.609Z,-0.58
2022-12-18T22:12:43.812Z,-0.55
2022-12-18T22:14:51.100Z,-0.52
2022-12-18T22:16:55.867Z,-0.48
2022-12-18T22:19:00.556Z,-0.48
2022-12-18T22:21:03.659Z,-0.47
2022-12-18T22:23:06.852Z,-0.47
2022-12-18T22:25:10.818Z,-0.46
2022-12-18T22:27:13.834Z,-0.46
2022-12-18T22:32:03.726Z,-0.46
2022-12-18T22:34:08.675Z,-0.46
2022-12-18T22:36:11.777Z,-0.46
2022-12-18T22:38:14.740Z,-0.46
2022-12-18T22:40:23.892Z,-0.47
2022-12-18T22:42:28.810Z,-0.52
2022-12-18T22:44:31.833Z,-0.52
2022-12-18T22:46:36.894Z,-0.52
2022-12-18T22:48:40.017Z,-0.50
2022-12-18T22:50:44.367Z,-0.52
2022-12-18T22:52:47.374Z,-0.51
2022-12-18T22:55:02.598Z,-0.50
2022-12-18T22:57:05.817Z,-0.49
2022-12-18T22:59:09.152Z,-0.48
2022-12-18T23:01:20.737Z,-0.47
2022-12-18T23:03:23.996Z,-0.46
2022-12-18T23:05:30.938Z,-0.51
2022-12-18T23:07:35.608Z,-0.55
2022-12-18T23:09:39.079Z,-0.55
2022-12-18T23:11:42.154Z,-0.51
2022-12-18T23:13:45.461Z,-0.48
2022-12-18T23:15:48.510Z,-0.47
2022-12-18T23:17:52.035Z,-0.44
2022-12-18T23:19:55.053Z,-0.42
2022-12-18T23:21:59.034Z,-0.40
2022-12-18T23:24:03.409Z,-0.38
2022-12-18T23:26:08.526Z,-0.37
2022-12-18T23:28:11.564Z,-0.38
2022-12-18T23:30:26.587Z,-0.35
2022-12-18T23:32:29.624Z,-0.32
2022-12-18T23:34:34.748Z,-0.34
2022-12-18T23:36:46.251Z,-0.31
2022-12-18T23:38:51.095Z,-0.31
2022-12-18T23:41:11.896Z,-0.30
2022-12-18T23:43:14.922Z,-0.28
2022-12-18T23:45:18.454Z,-0.27
2022-12-18T23:47:21.565Z,-0.24
2022-12-18T23:49:24.544Z,-0.24
2022-12-18T23:51:29.060Z,-0.25
2022-12-18T23:53:32.184Z,-0.22
2022-12-18T23:56:07.439Z,-0.22
2022-12-18T23:58:17.353Z,-0.20
